Time;durP1;ratioP1;P1;durP2;ratioP2;P2;SDS_P1;SDS_P2;PMS_P1;PMS_P2;Temp;Humidity;BMP_temperature;BMP_pressure;BME280_temperature;BME280_humidity;BME280_pressure;Samples;Min_cycle;Max_cycle;Signal;HPM_P1;HPM_P2
2022/01/20 00:01:16;;;;;;;;;105.00;77.33;;;;;-146.39;100.00;62182.44;6311552;20;3678614;-43
2022/01/20 00:03:46;;;;;;;;;111.67;78.00;;;;;-146.39;100.00;62182.44;6311426;20;3680444;-43
2022/01/20 00:26:26;;;;;;;;;96.00;69.33;;;;;-146.39;100.00;62182.44;6310930;20;2888859;-44
2022/01/20 00:28:27;;;;;;;;;96.67;74.00;;;;;-146.39;100.00;62182.44;6307744;20;3655537;-43
2022/01/20 00:31:09;;;;;;;;;102.67;72.33;;;;;-146.39;100.00;62182.44;6312311;20;3677469;-43
2022/01/20 00:33:48;;;;;;;;;54.33;24.67;;;;;-146.39;100.00;62182.44;6310660;20;3591913;-44
2022/01/20 00:39:06;;;;;;;;;108.67;75.33;;;;;-146.39;100.00;62182.44;6316816;20;3675265;-44
2022/01/20 00:41:36;;;;;;;;;108.00;77.33;;;;;-146.39;100.00;62182.44;6282346;20;3676289;-44
2022/01/20 00:44:06;;;;;;;;;101.33;71.00;;;;;-146.39;100.00;62182.44;6282570;20;3674183;-44
2022/01/20 00:46:35;;;;;;;;;87.00;63.67;;;;;-146.39;100.00;62182.44;6315884;20;2893031;-45
2022/01/20 00:49:04;;;;;;;;;82.60;61.80;;;;;-146.39;100.00;62182.44;6313190;20;3647113;-44
2022/01/20 00:51:32;;;;;;;;;76.00;58.00;;;;;-146.39;100.00;62182.44;6285725;20;2502331;-43
2022/01/20 00:54:02;;;;;;;;;95.67;69.33;;;;;-146.39;100.00;62182.44;6284743;20;3666889;-45
2022/01/20 00:56:32;;;;;;;;;94.00;70.00;;;;;-146.39;100.00;62182.44;6313476;20;3648129;-43
2022/01/20 00:59:02;;;;;;;;;86.33;62.67;;;;;-146.39;100.00;62182.44;6316893;20;2895045;-43
2022/01/20 01:01:31;;;;;;;;;96.67;72.67;;;;;-146.39;100.00;62182.44;6315863;20;3670004;-43
2022/01/20 01:04:02;;;;;;;;;93.33;70.67;;;;;-146.39;100.00;62182.44;6315316;20;3649169;-43
2022/01/20 01:09:20;;;;;;;;;84.00;63.00;;;;;-146.39;100.00;62182.44;6315474;20;2890969;-44
2022/01/20 01:11:51;;;;;;;;;98.67;71.33;;;;;-146.39;100.00;62182.44;6284955;20;2898261;-43
2022/01/20 01:14:22;;;;;;;;;88.00;66.00;;;;;-146.39;100.00;62182.44;6316499;20;3653491;-43
2022/01/20 01:24:43;;;;;;;;;81.67;59.33;;;;;-146.39;100.00;62182.44;6283231;20;2889886;-43
2022/01/20 01:27:14;;;;;;;;;91.67;66.33;;;;;-146.39;100.00;62182.44;6315687;20;2895113;-44
2022/01/20 01:32:17;;;;;;;;;86.00;62.60;;;;;-146.39;100.00;62182.44;6281203;20;3653494;-43
2022/01/20 01:34:50;;;;;;;;;81.00;62.50;;;;;-146.39;100.00;62182.44;6282096;20;2878383;-43
2022/01/20 01:40:05;;;;;;;;;72.50;54.00;;;;;-146.39;100.00;62182.44;6279196;20;2501354;-46
2022/01/20 01:42:46;;;;;;;;;75.50;53.00;;;;;-146.39;100.00;62182.44;6280439;20;2502407;-47
2022/01/20 01:45:20;;;;;;;;;72.00;54.50;;;;;-146.39;100.00;62182.44;6277001;20;2500356;-44
2022/01/20 01:47:48;;;;;;;;;71.50;52.00;;;;;-146.39;100.00;62182.44;6281187;20;2489931;-43
2022/01/20 01:50:17;;;;;;;;;77.00;58.00;;;;;-146.39;100.00;62182.44;6275999;20;2499276;-45
2022/01/20 01:52:46;;;;;;;;;75.20;59.60;;;;;-146.39;100.00;62182.44;6279794;20;3629403;-43
2022/01/20 01:55:17;;;;;;;;;87.33;59.00;;;;;-146.39;100.00;62182.44;6281699;20;2899345;-44
2022/01/20 01:57:46;;;;;;;;;76.50;57.50;;;;;-146.39;100.00;62182.44;6313854;20;3629408;-44
2022/01/20 02:00:18;;;;;;;;;72.67;58.33;;;;;-146.39;100.00;62182.44;6314476;20;3608609;-44
2022/01/20 02:02:46;;;;;;;;;78.00;60.00;;;;;-146.39;100.00;62182.44;6279848;20;2500366;-45
2022/01/20 02:05:17;;;;;;;;;64.50;51.50;;;;;-146.39;100.00;62182.44;6281676;20;2857024;-43
2022/01/20 02:18:54;;;;;;;;;73.00;51.00;;;;;-146.39;100.00;62182.44;6279280;20;2508656;-43
2022/01/20 02:21:23;;;;;;;;;81.00;60.50;;;;;-146.39;100.00;62182.44;6282017;20;2890859;-43
2022/01/20 02:23:51;;;;;;;;;85.50;65.00;;;;;-146.39;100.00;62182.44;6280380;20;2500338;-43
2022/01/20 02:26:21;;;;;;;;;83.67;55.67;;;;;-146.39;100.00;62182.44;6281328;20;2896216;-43
2022/01/20 02:28:49;;;;;;;;;77.00;57.50;;;;;-146.39;100.00;62182.44;6310862;20;2498297;-47
2022/01/20 02:31:17;;;;;;;;;79.00;59.00;;;;;-146.39;100.00;62182.44;6278551;20;2500379;-45
2022/01/20 02:33:46;;;;;;;;;76.50;53.50;;;;;-146.39;100.00;62182.44;6279929;20;2882536;-44
2022/01/20 02:36:16;;;;;;;;;77.00;54.00;;;;;-146.39;100.00;62182.44;6283130;20;2878390;-44
2022/01/20 02:38:51;;;;;;;;;84.00;62.00;;;;;-146.39;100.00;62182.44;6278011;20;2494002;-44
2022/01/20 02:46:54;;;;;;;;;62.00;48.50;;;;;-146.39;100.00;62182.44;6282483;20;2854446;-42
2022/01/20 02:49:23;;;;;;;;;76.00;54.00;;;;;-146.39;100.00;62182.44;6282709;20;2885731;-43
2022/01/20 02:51:56;;;;;;;;;76.67;53.33;;;;;-146.39;100.00;62182.44;6281602;20;2884716;-46
2022/01/20 02:54:24;;;;;;;;;55.50;50.50;;;;;-146.39;100.00;62182.44;6310355;20;2508627;-43
2022/01/20 02:56:52;;;;;;;;;73.50;52.50;;;;;-146.39;100.00;62182.44;6275773;20;2497151;-43
2022/01/20 02:59:21;;;;;;;;;67.00;48.50;;;;;-146.39;100.00;62182.44;6280629;20;2864871;-46
2022/01/20 03:01:48;;;;;;;;;66.00;51.50;;;;;-146.39;100.00;62182.44;6279852;20;2864999;-43
2022/01/20 03:04:16;;;;;;;;;68.00;48.00;;;;;-146.39;100.00;62182.44;6277831;20;2500346;-43
2022/01/20 03:06:45;;;;;;;;;71.50;55.00;;;;;-146.39;100.00;62182.44;6283287;20;2868990;-46
2022/01/20 03:09:13;;;;;;;;;72.00;56.50;;;;;-146.39;100.00;62182.44;6278508;20;2470482;-44
2022/01/20 03:11:42;;;;;;;;;72.50;52.00;;;;;-146.39;100.00;62182.44;6280842;20;2880483;-44
2022/01/20 03:14:11;;;;;;;;;61.67;54.33;;;;;-146.39;100.00;62182.44;6278483;20;3569324;-43
2022/01/20 03:16:39;;;;;;;;;71.00;53.50;;;;;-146.39;100.00;62182.44;6274777;20;2500349;-45
2022/01/20 03:19:07;;;;;;;;;71.50;53.50;;;;;-146.39;100.00;62182.44;6276905;20;2500353;-45
2022/01/20 03:21:35;;;;;;;;;73.00;49.00;;;;;-146.39;100.00;62182.44;6274120;20;2496250;-43
2022/01/20 03:24:07;;;;;;;;;80.00;58.67;;;;;-146.39;100.00;62182.44;6280337;20;2877318;-43
2022/01/20 03:26:36;;;;;;;;;79.00;61.00;;;;;-146.39;100.00;62182.44;6307902;20;2500266;-43
2022/01/20 03:29:07;;;;;;;;;76.33;58.00;;;;;-146.39;100.00;62182.44;6281878;20;2885672;-43
2022/01/20 03:31:34;;;;;;;;;69.00;55.00;;;;;-146.39;100.00;62182.44;6311318;20;2500394;-45
2022/01/20 03:34:04;;;;;;;;;75.50;57.00;;;;;-146.39;100.00;62182.44;6276958;20;2500325;-43
2022/01/20 03:36:34;;;;;;;;;77.00;58.00;;;;;-146.39;100.00;62182.44;6274540;20;2500240;-44
2022/01/20 03:39:05;;;;;;;;;76.50;54.00;;;;;-146.39;100.00;62182.44;6277097;20;2500248;-43
2022/01/20 03:41:34;;;;;;;;;74.50;55.00;;;;;-146.39;100.00;62182.44;6281469;20;2881956;-43
2022/01/20 03:44:03;;;;;;;;;67.50;52.00;;;;;-146.39;100.00;62182.44;6280547;20;2872116;-43
2022/01/20 03:46:32;;;;;;;;;69.00;50.00;;;;;-146.39;100.00;62182.44;6281766;20;2880517;-45
2022/01/20 03:49:21;;;;;;;;;61.50;48.00;;;;;-146.39;100.00;62182.44;6279083;20;2508631;-45
2022/01/20 03:51:49;;;;;;;;;73.50;56.00;;;;;-146.39;100.00;62182.44;6280476;20;2871119;-43
2022/01/20 03:54:18;;;;;;;;;72.00;53.50;;;;;-146.39;100.00;62182.44;6281298;20;2877535;-45
2022/01/20 03:56:47;;;;;;;;;72.50;56.00;;;;;-146.39;100.00;62182.44;6277579;20;2880545;-44
2022/01/20 03:59:16;;;;;;;;;67.00;50.00;;;;;-146.39;100.00;62182.44;6281249;20;2859624;-43
2022/01/20 04:01:45;;;;;;;;;69.50;56.00;;;;;-146.39;100.00;62182.44;6276524;20;2495053;-45
2022/01/20 04:04:14;;;;;;;;;71.00;54.50;;;;;-146.39;100.00;62182.44;6277429;20;2508574;-45
2022/01/20 04:06:42;;;;;;;;;66.00;47.50;;;;;-146.39;100.00;62182.44;6280933;20;2869000;-44
2022/01/20 04:09:12;;;;;;;;;77.50;53.50;;;;;-146.39;100.00;62182.44;6280395;20;2883411;-43
2022/01/20 04:11:49;;;;;;;;;78.33;57.67;;;;;-146.39;100.00;62182.44;6281744;20;2881490;-43
2022/01/20 04:14:21;;;;;;;;;70.33;47.00;;;;;-146.39;100.00;62182.44;6308655;20;2894154;-43
2022/01/20 04:19:21;;;;;;;;;72.50;48.50;;;;;-146.39;100.00;62182.44;6280600;20;2880556;-43
2022/01/20 04:21:50;;;;;;;;;61.00;47.00;;;;;-146.39;100.00;62182.44;6281076;20;2872135;-45
2022/01/20 04:24:19;;;;;;;;;80.67;58.67;;;;;-146.39;100.00;62182.44;6278683;20;2897147;-43
2022/01/20 04:26:48;;;;;;;;;69.50;52.00;;;;;-146.39;100.00;62182.44;6309400;20;2494098;-45
2022/01/20 04:29:17;;;;;;;;;66.00;52.00;;;;;-146.39;100.00;62182.44;6277627;20;2495600;-43
2022/01/20 04:31:49;;;;;;;;;69.00;50.50;;;;;-146.39;100.00;62182.44;6278841;20;2877425;-43
2022/01/20 04:34:18;;;;;;;;;76.50;53.00;;;;;-146.39;100.00;62182.44;6277257;20;2877446;-42
2022/01/20 04:36:49;;;;;;;;;64.00;49.50;;;;;-146.39;100.00;62182.44;6275971;20;2499212;-45
2022/01/20 04:39:23;;;;;;;;;65.50;47.00;;;;;-146.39;100.00;62182.44;6277058;20;2508750;-45
2022/01/20 04:41:52;;;;;;;;;75.50;52.00;;;;;-146.39;100.00;62182.44;6271799;20;2492970;-43
2022/01/20 04:44:47;;;;;;;;;71.00;57.50;;;;;-146.39;100.00;62182.44;6274380;20;2498242;-43
2022/01/20 04:58:03;;;;;;;;;73.00;55.00;;;;;-146.39;100.00;62182.44;6279065;20;2864842;-43
2022/01/20 05:00:33;;;;;;;;;73.33;53.67;;;;;-146.39;100.00;62182.44;6279803;20;2876452;-44
2022/01/20 05:03:04;;;;;;;;;71.00;50.50;;;;;-146.39;100.00;62182.44;6306736;20;2497228;-43
2022/01/20 05:05:34;;;;;;;;;71.50;53.00;;;;;-146.39;100.00;62182.44;6279746;20;2876464;-44
2022/01/20 05:08:03;;;;;;;;;65.00;48.00;;;;;-146.39;100.00;62182.44;6277398;20;2749390;-48
2022/01/20 05:10:33;;;;;;;;;73.00;53.00;;;;;-146.39;100.00;62182.44;6303566;20;2499237;-43
2022/01/20 05:13:10;;;;;;;;;76.50;55.00;;;;;-146.39;100.00;62182.44;6276862;20;2695053;-44
2022/01/20 05:15:40;;;;;;;;;66.00;52.50;;;;;-146.39;100.00;62182.44;6274971;20;2508613;-45
2022/01/20 05:18:08;;;;;;;;;73.50;50.50;;;;;-146.39;100.00;62182.44;6278784;20;2881609;-43
2022/01/20 05:20:37;;;;;;;;;77.00;57.00;;;;;-146.39;100.00;62182.44;6278735;20;2865859;-44
2022/01/20 05:23:06;;;;;;;;;72.00;53.00;;;;;-146.39;100.00;62182.44;6279366;20;2872301;-43
2022/01/20 05:25:34;;;;;;;;;66.50;49.50;;;;;-146.39;100.00;62182.44;6281018;20;2862837;-44
2022/01/20 05:28:02;;;;;;;;;67.00;52.50;;;;;-146.39;100.00;62182.44;6282313;20;2500258;-43
2022/01/20 05:30:30;;;;;;;;;64.00;52.00;;;;;-146.39;100.00;62182.44;6280259;20;2497168;-44
2022/01/20 05:33:00;;;;;;;;;66.50;48.50;;;;;-146.39;100.00;62182.44;6284945;20;2874238;-43
2022/01/20 05:35:30;;;;;;;;;72.50;52.50;;;;;-146.39;100.00;62182.44;6276539;20;2500341;-42
2022/01/20 05:38:00;;;;;;;;;74.00;56.00;;;;;-146.39;100.00;62182.44;6283546;20;2875299;-43
2022/01/20 05:40:28;;;;;;;;;75.00;56.50;;;;;-146.39;100.00;62182.44;6282319;20;2881535;-44
2022/01/20 05:42:56;;;;;;;;;72.00;51.50;;;;;-146.39;100.00;62182.44;6279819;20;2499203;-43
2022/01/20 05:45:25;;;;;;;;;61.50;51.50;;;;;-146.39;100.00;62182.44;6278976;20;2496251;-43
2022/01/20 05:48:10;;;;;;;;;70.33;53.33;;;;;-146.39;100.00;62182.44;6284841;20;3613944;-44
2022/01/20 05:50:39;;;;;;;;;65.50;52.50;;;;;-146.39;100.00;62182.44;6283015;20;2861792;-43
2022/01/20 05:53:10;;;;;;;;;65.00;47.00;;;;;-146.39;100.00;62182.44;6281804;20;2865865;-43
2022/01/20 05:55:42;;;;;;;;;71.00;54.00;;;;;-146.39;100.00;62182.44;6277248;20;2496097;-45
2022/01/20 05:58:10;;;;;;;;;78.00;57.00;;;;;-146.39;100.00;62182.44;6280304;20;2500303;-44
2022/01/20 06:00:40;;;;;;;;;81.67;57.67;;;;;-146.39;100.00;62182.44;6281461;20;2891953;-44
2022/01/20 06:05:55;;;;;;;;;68.50;52.00;;;;;-146.39;100.00;62182.44;6281650;20;2500247;-44
2022/01/20 06:08:24;;;;;;;;;65.00;49.00;;;;;-146.39;100.00;62182.44;6281608;20;2503518;-42
2022/01/20 06:10:53;;;;;;;;;67.00;54.50;;;;;-146.39;100.00;62182.44;6284679;20;2856498;-43
2022/01/20 06:13:22;;;;;;;;;68.33;48.67;;;;;-146.39;100.00;62182.44;6284541;20;3614892;-44
2022/01/20 06:15:51;;;;;;;;;77.50;55.00;;;;;-146.39;100.00;62182.44;6282321;20;2882970;-42
2022/01/20 06:18:20;;;;;;;;;74.00;59.00;;;;;-146.39;100.00;62182.44;6284912;20;2862844;-43
2022/01/20 06:20:49;;;;;;;;;70.50;52.50;;;;;-146.39;100.00;62182.44;6284182;20;2862749;-44
2022/01/20 06:23:19;;;;;;;;;67.50;56.50;;;;;-146.39;100.00;62182.44;6284004;20;2849231;-43
2022/01/20 06:25:47;;;;;;;;;75.50;60.00;;;;;-146.39;100.00;62182.44;6282615;20;2864827;-42
2022/01/20 06:28:17;;;;;;;;;75.00;52.00;;;;;-146.39;100.00;62182.44;6281016;20;2499215;-45
2022/01/20 06:30:49;;;;;;;;;82.00;59.67;;;;;-146.39;100.00;62182.44;6280929;20;2895093;-43
2022/01/20 06:33:17;;;;;;;;;70.00;57.00;;;;;-146.39;100.00;62182.44;6311410;20;2498250;-42
2022/01/20 06:35:45;;;;;;;;;75.00;57.00;;;;;-146.39;100.00;62182.44;6278326;20;2879402;-42
2022/01/20 06:38:15;;;;;;;;;87.67;58.67;;;;;-146.39;100.00;62182.44;6279119;20;2911811;-45
2022/01/20 06:40:45;;;;;;;;;72.00;54.50;;;;;-146.39;100.00;62182.44;6315327;20;2874232;-44
2022/01/20 06:43:13;;;;;;;;;80.50;57.50;;;;;-146.39;100.00;62182.44;6277162;20;2500265;-43
2022/01/20 06:45:42;;;;;;;;;74.00;57.50;;;;;-146.39;100.00;62182.44;6277974;20;2496083;-42
2022/01/20 06:48:10;;;;;;;;;76.00;57.00;;;;;-146.39;100.00;62182.44;6281222;20;2500397;-44
2022/01/20 06:50:39;;;;;;;;;72.50;52.00;;;;;-146.39;100.00;62182.44;6283357;20;2875608;-42
2022/01/20 06:53:08;;;;;;;;;73.50;54.50;;;;;-146.39;100.00;62182.44;6283280;20;2882592;-43
2022/01/20 06:55:36;;;;;;;;;80.50;59.00;;;;;-146.39;100.00;62182.44;6277934;20;2500379;-46
2022/01/20 06:58:04;;;;;;;;;73.00;54.50;;;;;-146.39;100.00;62182.44;6284606;20;2874202;-42
2022/01/20 07:00:34;;;;;;;;;79.67;57.33;;;;;-146.39;100.00;62182.44;6282578;20;2889859;-45
2022/01/20 07:03:04;;;;;;;;;86.67;62.00;;;;;-146.39;100.00;62182.44;6314533;20;2900460;-43
2022/01/20 07:05:33;;;;;;;;;98.33;70.67;;;;;-146.39;100.00;62182.44;6313287;20;3663745;-44
2022/01/20 07:08:03;;;;;;;;;91.00;61.67;;;;;-146.39;100.00;62182.44;6314805;20;3656563;-43
2022/01/20 07:10:31;;;;;;;;;79.00;57.00;;;;;-146.39;100.00;62182.44;6277568;20;2500259;-43
2022/01/20 07:13:00;;;;;;;;;80.00;60.50;;;;;-146.39;100.00;62182.44;6279305;20;2884883;-46
2022/01/20 07:15:30;;;;;;;;;81.67;60.33;;;;;-146.39;100.00;62182.44;6282807;20;3653517;-44
2022/01/20 07:17:59;;;;;;;;;84.33;60.33;;;;;-146.39;100.00;62182.44;6313962;20;3649241;-48
2022/01/20 07:20:28;;;;;;;;;69.50;57.50;;;;;-146.39;100.00;62182.44;6309738;20;2500275;-43
2022/01/20 07:22:56;;;;;;;;;77.00;55.00;;;;;-146.39;100.00;62182.44;6279102;20;2500231;-45
2022/01/20 07:25:26;;;;;;;;;85.00;60.67;;;;;-146.39;100.00;62182.44;6281719;20;2898238;-43
2022/01/20 07:27:55;;;;;;;;;79.00;58.33;;;;;-146.39;100.00;62182.44;6314949;20;2883576;-45
2022/01/20 07:30:31;;;;;;;;;69.50;56.00;;;;;-146.39;100.00;62182.44;6310180;20;2500301;-44
2022/01/20 07:33:02;;;;;;;;;65.50;50.00;;;;;-146.39;100.00;62182.44;6273968;20;2497203;-45
2022/01/20 07:35:37;;;;;;;;;73.50;57.00;;;;;-146.39;100.00;62182.44;6282328;20;2865939;-43
2022/01/20 07:38:07;;;;;;;;;73.00;57.00;;;;;-146.39;100.00;62182.44;6280316;20;2867961;-46
2022/01/20 07:40:35;;;;;;;;;67.00;51.50;;;;;-146.39;100.00;62182.44;6278512;20;2500755;-44
2022/01/20 07:43:04;;;;;;;;;65.50;52.00;;;;;-146.39;100.00;62182.44;6281241;20;2856520;-44
2022/01/20 07:45:33;;;;;;;;;66.00;52.50;;;;;-146.39;100.00;62182.44;6281969;20;2866919;-45
2022/01/20 07:48:01;;;;;;;;;61.50;49.50;;;;;-146.39;100.00;62182.44;6277801;20;2500280;-44
2022/01/20 07:50:30;;;;;;;;;71.50;54.00;;;;;-146.39;100.00;62182.44;6278092;20;2500307;-45
2022/01/20 07:52:58;;;;;;;;;71.00;52.50;;;;;-146.39;100.00;62182.44;6274110;20;2497145;-45
2022/01/20 07:55:26;;;;;;;;;9.67;0.00;;;;;-146.39;100.00;62182.44;6279273;20;3465841;-44
2022/01/20 07:57:54;;;;;;;;;73.00;54.50;;;;;-146.39;100.00;62182.44;6311726;20;2862759;-45
2022/01/20 08:00:26;;;;;;;;;70.67;51.33;;;;;-146.39;100.00;62182.44;6281269;20;2888906;-44
2022/01/20 08:02:54;;;;;;;;;60.00;50.00;;;;;-146.39;100.00;62182.44;6313644;20;2858753;-45
2022/01/20 08:05:24;;;;;;;;;71.00;52.00;;;;;-146.39;100.00;62182.44;6282436;20;2856604;-46
2022/01/20 08:07:52;;;;;;;;;63.50;51.00;;;;;-146.39;100.00;62182.44;6280829;20;2853406;-43
2022/01/20 08:10:21;;;;;;;;;70.00;54.00;;;;;-146.39;100.00;62182.44;6278637;20;2500308;-44
2022/01/20 08:12:50;;;;;;;;;67.00;49.00;;;;;-146.39;100.00;62182.44;6279679;20;2869164;-44
2022/01/20 08:15:20;;;;;;;;;75.00;55.00;;;;;-146.39;100.00;62182.44;6278018;20;3629476;-45
2022/01/20 08:17:50;;;;;;;;;61.00;47.33;;;;;-146.39;100.00;62182.44;6312713;20;2884642;-44
2022/01/20 08:20:18;;;;;;;;;69.00;52.00;;;;;-146.39;100.00;62182.44;6312975;20;2867996;-44
2022/01/20 08:22:47;;;;;;;;;60.00;46.00;;;;;-146.39;100.00;62182.44;6279436;20;2853479;-44
2022/01/20 08:25:19;;;;;;;;;58.50;47.00;;;;;-146.39;100.00;62182.44;6279466;20;2871106;-45
2022/01/20 08:27:48;;;;;;;;;61.00;47.00;;;;;-146.39;100.00;62182.44;6275556;20;2500282;-45
2022/01/20 08:30:22;;;;;;;;;63.50;47.50;;;;;-146.39;100.00;62182.44;6277115;20;2497135;-47
2022/01/20 08:32:51;;;;;;;;;66.50;50.50;;;;;-146.39;100.00;62182.44;6280076;20;2869051;-45
2022/01/20 08:35:23;;;;;;;;;68.00;52.50;;;;;-146.39;100.00;62182.44;6279454;20;2864864;-44
2022/01/20 08:37:53;;;;;;;;;73.33;58.67;;;;;-146.39;100.00;62182.44;6279861;20;2876500;-44
2022/01/20 08:40:22;;;;;;;;;68.00;53.50;;;;;-146.39;100.00;62182.44;6310887;20;2862809;-43
2022/01/20 08:42:55;;;;;;;;;68.67;57.00;;;;;-146.39;100.00;62182.44;6280472;20;2883651;-45
2022/01/20 08:45:32;;;;;;;;;75.00;50.67;;;;;-146.39;100.00;62182.44;6310902;20;3634663;-45
2022/01/20 08:48:04;;;;;;;;;72.00;57.00;;;;;-146.39;100.00;62182.44;6312191;20;2861753;-46
2022/01/20 08:50:34;;;;;;;;;76.00;55.00;;;;;-146.39;100.00;62182.44;6280087;20;3648147;-45
2022/01/20 08:53:04;;;;;;;;;72.00;54.67;;;;;-146.39;100.00;62182.44;6310531;20;2884678;-44
2022/01/20 08:55:34;;;;;;;;;76.67;60.00;;;;;-146.39;100.00;62182.44;6309715;20;2879482;-44
2022/01/20 08:58:05;;;;;;;;;80.00;60.67;;;;;-146.39;100.00;62182.44;6313528;20;2884714;-44
2022/01/20 09:00:36;;;;;;;;;77.00;56.33;;;;;-146.39;100.00;62182.44;6317154;20;2879550;-44
2022/01/20 09:03:09;;;;;;;;;71.00;56.33;;;;;-146.39;100.00;62182.44;6316106;20;2865873;-47
2022/01/20 09:05:38;;;;;;;;;73.50;55.00;;;;;-146.39;100.00;62182.44;6317236;20;2888827;-44
2022/01/20 09:08:10;;;;;;;;;90.33;65.00;;;;;-146.39;100.00;62182.44;6286827;20;3659639;-48
2022/01/20 09:10:39;;;;;;;;;69.00;55.00;;;;;-146.39;100.00;62182.44;6314151;20;2590863;-48
2022/01/20 09:15:55;;;;;;;;;70.50;54.50;;;;;-146.39;100.00;62182.44;6285398;20;2876415;-47
2022/01/20 09:18:25;;;;;;;;;72.50;60.50;;;;;-146.39;100.00;62182.44;6281701;20;2500285;-44
2022/01/20 09:20:54;;;;;;;;;71.00;57.00;;;;;-146.39;100.00;62182.44;6284571;20;2862872;-45
2022/01/20 09:23:22;;;;;;;;;70.00;54.00;;;;;-146.39;100.00;62182.44;6286221;20;2872202;-44
2022/01/20 09:25:52;;;;;;;;;74.00;57.33;;;;;-146.39;100.00;62182.44;6284774;20;2885788;-46
2022/01/20 09:28:22;;;;;;;;;64.00;47.67;;;;;-146.39;100.00;62182.44;6316302;20;2870174;-46
2022/01/20 09:30:56;;;;;;;;;63.50;50.50;;;;;-146.39;100.00;62182.44;6317249;20;2865898;-47
2022/01/20 09:33:27;;;;;;;;;63.50;47.50;;;;;-146.39;100.00;62182.44;6284603;20;2873203;-45
2022/01/20 09:35:59;;;;;;;;;70.00;54.00;;;;;-146.39;100.00;62182.44;6284990;20;2883594;-46
2022/01/20 09:38:29;;;;;;;;;66.67;54.00;;;;;-146.39;100.00;62182.44;6284486;20;2872181;-44
2022/01/20 09:40:58;;;;;;;;;63.00;51.50;;;;;-146.39;100.00;62182.44;6317816;20;2852321;-45
2022/01/20 09:43:27;;;;;;;;;65.00;53.00;;;;;-146.39;100.00;62182.44;6282220;20;2473181;-45
2022/01/20 09:45:59;;;;;;;;;74.00;57.00;;;;;-146.39;100.00;62182.44;6285856;20;3634580;-44
2022/01/20 09:48:31;;;;;;;;;68.00;53.50;;;;;-146.39;100.00;62182.44;6316118;20;2870084;-46
2022/01/20 09:51:01;;;;;;;;;70.00;50.50;;;;;-146.39;100.00;62182.44;6283277;20;2881504;-45
2022/01/20 09:53:31;;;;;;;;;68.00;51.50;;;;;-146.39;100.00;62182.44;6284056;20;2870030;-44
2022/01/20 09:56:00;;;;;;;;;59.67;49.67;;;;;-146.39;100.00;62182.44;6282057;20;3601380;-44
2022/01/20 09:58:29;;;;;;;;;60.00;51.00;;;;;-146.39;100.00;62182.44;6284396;20;3582511;-46
2022/01/20 10:00:59;;;;;;;;;57.00;45.00;;;;;-146.39;100.00;62182.44;6284158;20;2877481;-44
2022/01/20 10:03:29;;;;;;;;;60.00;50.50;;;;;-146.39;100.00;62182.44;6278940;20;2499226;-44
2022/01/20 10:06:03;;;;;;;;;69.00;54.33;;;;;-146.39;100.00;62182.44;6283267;20;2879440;-45
2022/01/20 10:08:35;;;;;;;;;71.33;53.00;;;;;-146.39;100.00;62182.44;6316378;20;2871073;-42
2022/01/20 10:11:10;;;;;;;;;76.33;55.67;;;;;-146.39;100.00;62182.44;6313856;20;3637785;-43
2022/01/20 10:13:42;;;;;;;;;71.50;54.50;;;;;-146.39;100.00;62182.44;6314348;20;2875245;-46
2022/01/20 10:16:19;;;;;;;;;62.00;49.00;;;;;-146.39;100.00;62182.44;6282388;20;2862217;-44
2022/01/20 10:19:00;;;;;;;;;78.00;56.00;;;;;-146.39;100.00;62182.44;6284694;20;2886738;-44
2022/01/20 10:21:36;;;;;;;;;75.00;55.33;;;;;-146.39;100.00;62182.44;6315388;20;2874192;-44
2022/01/20 10:24:10;;;;;;;;;78.67;57.33;;;;;-146.39;100.00;62182.44;6312374;20;3637789;-43
2022/01/20 10:26:41;;;;;;;;;75.00;54.33;;;;;-146.39;100.00;62182.44;6314277;20;3627304;-42
2022/01/20 10:29:15;;;;;;;;;76.33;57.67;;;;;-146.39;100.00;62182.44;6313018;20;3630527;-43
2022/01/20 10:32:04;;;;;;;;;67.50;53.50;;;;;-146.39;100.00;62182.44;6316014;20;2861843;-42
2022/01/20 10:34:35;;;;;;;;;67.00;55.00;;;;;-146.39;100.00;62182.44;6281054;20;2871240;-43
2022/01/20 10:37:14;;;;;;;;;68.00;48.00;;;;;-146.39;100.00;62182.44;6281475;20;2877529;-45
2022/01/20 10:39:47;;;;;;;;;67.33;52.67;;;;;-146.39;100.00;62182.44;6314125;20;2866005;-44
2022/01/20 10:42:22;;;;;;;;;65.33;50.67;;;;;-146.39;100.00;62182.44;6313771;20;2875426;-42
2022/01/20 10:44:58;;;;;;;;;69.50;52.50;;;;;-146.39;100.00;62182.44;6310531;20;2867008;-47
2022/01/20 10:47:36;;;;;;;;;65.33;50.33;;;;;-146.39;100.00;62182.44;6281292;20;2879981;-44
2022/01/20 10:50:29;;;;;;;;;64.50;50.50;;;;;-146.39;100.00;62182.44;6312624;20;2850349;-45
2022/01/20 10:52:58;;;;;;;;;66.00;52.00;;;;;-146.39;100.00;62182.44;6284009;20;2872219;-44
2022/01/20 10:55:34;;;;;;;;;59.00;46.50;;;;;-146.39;100.00;62182.44;6281069;20;2852430;-43
2022/01/20 10:58:22;;;;;;;;;68.00;52.50;;;;;-146.39;100.00;62182.44;6282324;20;2870121;-43
2022/01/20 11:00:57;;;;;;;;;66.00;52.00;;;;;-146.39;100.00;62182.44;6286527;20;2491930;-48
2022/01/20 11:03:28;;;;;;;;;56.50;47.00;;;;;-146.39;100.00;62182.44;6283503;20;2852432;-42
2022/01/20 11:05:58;;;;;;;;;59.50;48.00;;;;;-146.39;100.00;62182.44;6282239;20;2862793;-43
2022/01/20 11:08:29;;;;;;;;;58.33;42.33;;;;;-146.39;100.00;62182.44;6284295;20;3644086;-44
2022/01/20 11:11:01;;;;;;;;;63.67;47.67;;;;;-146.39;100.00;62182.44;6314867;20;2873183;-46
2022/01/20 11:13:31;;;;;;;;;63.50;44.00;;;;;-146.39;100.00;62182.44;6315201;20;2860650;-43
2022/01/20 11:16:00;;;;;;;;;58.00;44.33;;;;;-146.39;100.00;62182.44;6282702;20;2883633;-43
2022/01/20 11:18:29;;;;;;;;;50.00;43.00;;;;;-146.39;100.00;62182.44;6312621;20;2500264;-46
2022/01/20 11:21:02;;;;;;;;;54.00;47.00;;;;;-146.39;100.00;62182.44;6274803;20;2492059;-43
2022/01/20 11:23:43;;;;;;;;;63.00;51.00;;;;;-146.39;100.00;62182.44;6279351;20;2857575;-44
2022/01/20 11:26:12;;;;;;;;;63.00;51.50;;;;;-146.39;100.00;62182.44;6282629;20;2868981;-45
2022/01/20 11:28:40;;;;;;;;;60.00;47.50;;;;;-146.39;100.00;62182.44;6281252;20;2854410;-45
2022/01/20 11:31:09;;;;;;;;;57.00;43.00;;;;;-146.39;100.00;62182.44;6286885;20;2495056;-43
2022/01/20 11:33:43;;;;;;;;;54.50;46.00;;;;;-146.39;100.00;62182.44;6281519;20;2857613;-44
2022/01/20 11:36:29;;;;;;;;;63.50;48.50;;;;;-146.39;100.00;62182.44;6282245;20;2864839;-44
2022/01/20 11:39:24;;;;;;;;;60.50;48.00;;;;;-146.39;100.00;62182.44;6280899;20;2858701;-44
2022/01/20 11:41:53;;;;;;;;;45.00;43.00;;;;;-146.39;100.00;62182.44;6280454;20;2850287;-43
2022/01/20 11:44:29;;;;;;;;;49.00;39.50;;;;;-146.39;100.00;62182.44;6278414;20;2841942;-46
2022/01/20 11:47:09;;;;;;;;;52.00;42.50;;;;;-146.39;100.00;62182.44;6281775;20;2873290;-44
2022/01/20 11:49:40;;;;;;;;;53.00;43.00;;;;;-146.39;100.00;62182.44;6281804;20;2492959;-44
2022/01/20 11:52:21;;;;;;;;;65.00;54.00;;;;;-146.39;100.00;62182.44;6282385;20;2858579;-43
2022/01/20 11:54:50;;;;;;;;;51.50;41.00;;;;;-146.39;100.00;62182.44;6276562;20;2871106;-43
2022/01/20 11:57:30;;;;;;;;;51.00;39.00;;;;;-146.39;100.00;62182.44;6279667;20;2869141;-43
2022/01/20 12:00:16;;;;;;;;;38.00;34.00;;;;;-146.39;100.00;62182.44;6313657;20;3592288;-43
2022/01/20 12:02:45;;;;;;;;;43.50;28.00;;;;;-146.39;100.00;62182.44;6276300;20;2874312;-48
2022/01/20 12:05:31;;;;;;;;;45.67;37.00;;;;;-146.39;100.00;62182.44;6278279;20;3616302;-44
2022/01/20 12:08:18;;;;;;;;;41.00;37.00;;;;;-146.39;100.00;62182.44;6312204;20;2864851;-43
2022/01/20 12:11:09;;;;;;;;;30.00;27.00;;;;;-146.39;100.00;62182.44;6311873;20;2847181;-43